Main page
METAR-TAF:

METAR-TAF

Airports :

Kunming Changshui International Airport

Kunming, China

latitude: 25-01N, longitude: 102-41E, elevation: 1892 m

Current weather observation

The report was made 44 minutes ago, at 12:00 UTC
Wind 6 kt from the South/Southwest
Temperature 15°C
Humidity 59%
Pressure 1020 hPa
Visibility 10 km or more
no clouds below 1500 m and no cumulonimbus

METAR: ZPPP 181200Z 21003MPS CAVOK 15/07 Q1020 NOSIG

Time: 20:44 (12:44 UTC)

Forecast

The report was made 5 hours and 40 minutes ago, at 07:04 UTC
Forecast valid from 18 at 12 UTC to 19 at 12 UTC
Wind 12 kt from the Southwest
Visibility 10 km or more
Scattered clouds at a height of 2300 ft

TAF: ZPPP 180704Z 1812/1912 22006MPS 9999 SCT023 TX21/1908Z TN10/1823Z

Weather observations and forecasts of more than 4000 airports (METAR and TAF reports).

The available stations are represented by yellow and red dots on the map.

Hover mouse over dot to see the name of the station.

Then click to see weather observations and forecasts.

To change the map : click on the green buttons with a black cross to zoom in, on the green button with a dash to zoom out, or on the green arrows for adjacent maps.


METAR-TAF: